DLH910 EDDN-EDDG
Flight info
| Callsign | DLH910 |
|---|---|
| Flight time | 0h 44m |
| Altitude | 24000 |
| Route | SULUS1G/28 SULUS L604 MASEK Z52 ARPEG Z850 HMM HMM1A |
| Aircraft | A320/M-SDE3FGHIRWY/LB1 |
Departure
| Time | 2026-04-09 13:53 |
|---|---|
| Airport | Nuremberg Airport (EDDN) |
Arrival
| Time | 2026-04-09 14:37 |
|---|---|
| Airport | Münster Osnabrück Airport (EDDG) |
| Time | Latitude | Longitude | Altitude | Speed | Heading |
|---|---|---|---|---|---|
| 2026-04-09 13:15 | 49.49525 | 11.07659 | 1024 ft | 0 kts | 188° |
| 2026-04-09 13:44 | 49.49539 | 11.07662 | 1024 ft | 4 kts | 188° |
| 2026-04-09 13:45 | 49.49590 | 11.07670 | 1024 ft | 4 kts | 146° |
| 2026-04-09 13:45 | 49.49598 | 11.07650 | 1024 ft | 3 kts | 98° |
| 2026-04-09 13:45 | 49.49601 | 11.07623 | 1026 ft | 0 kts | 98° |
| 2026-04-09 13:48 | 49.49600 | 11.07624 | 1026 ft | 1 kts | 98° |
| 2026-04-09 13:48 | 49.49591 | 11.07721 | 1027 ft | 17 kts | 99° |
| 2026-04-09 13:48 | 49.49571 | 11.07911 | 1026 ft | 19 kts | 98° |
| 2026-04-09 13:48 | 49.49549 | 11.08117 | 1028 ft | 20 kts | 96° |
| 2026-04-09 13:49 | 49.49537 | 11.08328 | 1030 ft | 11 kts | 67° |
| 2026-04-09 13:49 | 49.49589 | 11.08359 | 1032 ft | 6 kts | 24° |
| 2026-04-09 13:49 | 49.49609 | 11.08386 | 1033 ft | 2 kts | 52° |
| 2026-04-09 13:49 | 49.49613 | 11.08415 | 1034 ft | 11 kts | 89° |
| 2026-04-09 13:50 | 49.49600 | 11.08587 | 1036 ft | 17 kts | 98° |
| 2026-04-09 13:50 | 49.49581 | 11.08776 | 1037 ft | 19 kts | 99° |
| 2026-04-09 13:50 | 49.49560 | 11.08994 | 1039 ft | 21 kts | 98° |
| 2026-04-09 13:50 | 49.49538 | 11.09216 | 1043 ft | 21 kts | 98° |
| 2026-04-09 13:51 | 49.49547 | 11.09393 | 1047 ft | 15 kts | 59° |
| 2026-04-09 13:51 | 49.49604 | 11.09514 | 1050 ft | 14 kts | 53° |
| 2026-04-09 13:51 | 49.49685 | 11.09561 | 1052 ft | 10 kts | 333° |
| 2026-04-09 13:51 | 49.49704 | 11.09486 | 1051 ft | 0 kts | 278° |
| 2026-04-09 13:52 | 49.49705 | 11.09479 | 1051 ft | 1 kts | 278° |
| 2026-04-09 13:52 | 49.49706 | 11.09460 | 1051 ft | 2 kts | 278° |
| 2026-04-09 13:52 | 49.49707 | 11.09454 | 1051 ft | 1 kts | 278° |
| 2026-04-09 13:52 | 49.49714 | 11.09383 | 1050 ft | 20 kts | 278° |
| 2026-04-09 13:53 | 49.49768 | 11.08843 | 1041 ft | 94 kts | 278° |
| 2026-04-09 13:53 | 49.49908 | 11.07445 | 1053 ft | 163 kts | 278° |
| 2026-04-09 13:53 | 49.50092 | 11.05663 | 1756 ft | 171 kts | 278° |
| 2026-04-09 13:53 | 49.50265 | 11.03842 | 2691 ft | 173 kts | 278° |
| 2026-04-09 13:54 | 49.50429 | 11.02032 | 3541 ft | 167 kts | 278° |
| 2026-04-09 13:54 | 49.50600 | 11.00226 | 3965 ft | 179 kts | 279° |
| 2026-04-09 13:54 | 49.50795 | 10.98249 | 4278 ft | 193 kts | 279° |
| 2026-04-09 13:54 | 49.51006 | 10.96109 | 4575 ft | 214 kts | 279° |
| 2026-04-09 13:55 | 49.51530 | 10.93848 | 4891 ft | 239 kts | 309° |
| 2026-04-09 13:55 | 49.52948 | 10.92401 | 5323 ft | 258 kts | 346° |
| 2026-04-09 13:55 | 49.54758 | 10.92079 | 6202 ft | 264 kts | 359° |
| 2026-04-09 13:55 | 49.56592 | 10.92132 | 7190 ft | 264 kts | 2° |
| 2026-04-09 13:56 | 49.58427 | 10.92301 | 8132 ft | 265 kts | 2° |
| 2026-04-09 13:56 | 49.60279 | 10.92476 | 9060 ft | 268 kts | 1° |
| 2026-04-09 13:56 | 49.62145 | 10.92620 | 9989 ft | 270 kts | 0° |
| 2026-04-09 13:56 | 49.64052 | 10.92730 | 10571 ft | 284 kts | 360° |
| 2026-04-09 13:57 | 49.66105 | 10.92813 | 10834 ft | 307 kts | 359° |
| 2026-04-09 13:57 | 49.68321 | 10.92881 | 11057 ft | 330 kts | 359° |
| 2026-04-09 13:57 | 49.70636 | 10.92584 | 11376 ft | 345 kts | 346° |
| 2026-04-09 13:57 | 49.72969 | 10.91436 | 12039 ft | 350 kts | 340° |
| 2026-04-09 13:58 | 49.75251 | 10.90211 | 12773 ft | 353 kts | 340° |
| 2026-04-09 13:58 | 49.77583 | 10.88972 | 13477 ft | 356 kts | 340° |
| 2026-04-09 13:58 | 49.79935 | 10.87723 | 14170 ft | 360 kts | 340° |
| 2026-04-09 13:58 | 49.82313 | 10.86458 | 14814 ft | 363 kts | 340° |
| 2026-04-09 13:59 | 49.84698 | 10.85184 | 15622 ft | 358 kts | 340° |
| 2026-04-09 13:59 | 49.87034 | 10.83932 | 16567 ft | 354 kts | 340° |
| 2026-04-09 13:59 | 49.89367 | 10.82676 | 17274 ft | 356 kts | 340° |
| 2026-04-09 13:59 | 49.91718 | 10.81407 | 17940 ft | 359 kts | 340° |
| 2026-04-09 14:00 | 49.94087 | 10.80129 | 18583 ft | 362 kts | 340° |
| 2026-04-09 14:00 | 49.96471 | 10.78840 | 19145 ft | 365 kts | 340° |
| 2026-04-09 14:00 | 49.98878 | 10.77539 | 19724 ft | 367 kts | 340° |
| 2026-04-09 14:00 | 50.01299 | 10.76232 | 20296 ft | 370 kts | 340° |
| 2026-04-09 14:01 | 50.03740 | 10.74919 | 20855 ft | 373 kts | 340° |
| 2026-04-09 14:01 | 50.06132 | 10.73340 | 21389 ft | 375 kts | 332° |
| 2026-04-09 14:01 | 50.08335 | 10.71138 | 21924 ft | 378 kts | 323° |
| 2026-04-09 14:01 | 50.10286 | 10.68379 | 22443 ft | 382 kts | 315° |
| 2026-04-09 14:02 | 50.12122 | 10.65371 | 22963 ft | 384 kts | 315° |
| 2026-04-09 14:02 | 50.13968 | 10.62348 | 23459 ft | 386 kts | 315° |
| 2026-04-09 14:02 | 50.15825 | 10.59303 | 23913 ft | 389 kts | 315° |
| 2026-04-09 14:02 | 50.17694 | 10.56236 | 24116 ft | 391 kts | 315° |
| 2026-04-09 14:03 | 50.19569 | 10.53150 | 24168 ft | 392 kts | 315° |
| 2026-04-09 14:03 | 50.20812 | 10.51101 | 24175 ft | 392 kts | 315° |
| 2026-04-09 14:03 | 50.22687 | 10.48007 | 24173 ft | 392 kts | 315° |
| 2026-04-09 14:03 | 50.24572 | 10.44928 | 24174 ft | 392 kts | 315° |
| 2026-04-09 14:04 | 50.26471 | 10.41873 | 24169 ft | 392 kts | 315° |
| 2026-04-09 14:04 | 50.28377 | 10.38827 | 24169 ft | 391 kts | 316° |
| 2026-04-09 14:04 | 50.30252 | 10.35825 | 24177 ft | 388 kts | 316° |
| 2026-04-09 14:04 | 50.32136 | 10.32803 | 24171 ft | 383 kts | 315° |
| 2026-04-09 14:05 | 50.33984 | 10.29824 | 24159 ft | 380 kts | 315° |
| 2026-04-09 14:05 | 50.35800 | 10.26832 | 24163 ft | 379 kts | 314° |
| 2026-04-09 14:05 | 50.37539 | 10.23714 | 24167 ft | 380 kts | 312° |
| 2026-04-09 14:05 | 50.39271 | 10.20596 | 24152 ft | 379 kts | 313° |
| 2026-04-09 14:06 | 50.41048 | 10.17556 | 24168 ft | 378 kts | 314° |
| 2026-04-09 14:06 | 50.42861 | 10.14580 | 24167 ft | 377 kts | 315° |
| 2026-04-09 14:06 | 50.44689 | 10.11621 | 24171 ft | 378 kts | 315° |
| 2026-04-09 14:06 | 50.46498 | 10.08632 | 24167 ft | 378 kts | 314° |
| 2026-04-09 14:07 | 50.48289 | 10.05614 | 24170 ft | 378 kts | 314° |
| 2026-04-09 14:07 | 50.50066 | 10.02576 | 24175 ft | 378 kts | 314° |
| 2026-04-09 14:07 | 50.51840 | 9.99524 | 24173 ft | 378 kts | 314° |
| 2026-04-09 14:07 | 50.53610 | 9.96474 | 24171 ft | 378 kts | 314° |
| 2026-04-09 14:08 | 50.55360 | 9.93391 | 24168 ft | 378 kts | 312° |
| 2026-04-09 14:08 | 50.57060 | 9.90241 | 24167 ft | 378 kts | 311° |
| 2026-04-09 14:08 | 50.58730 | 9.87044 | 24166 ft | 378 kts | 310° |
| 2026-04-09 14:08 | 50.60386 | 9.83833 | 24166 ft | 378 kts | 310° |
| 2026-04-09 14:09 | 50.62041 | 9.80621 | 24142 ft | 378 kts | 310° |
| 2026-04-09 14:09 | 50.63703 | 9.77410 | 24145 ft | 378 kts | 310° |
| 2026-04-09 14:09 | 50.65375 | 9.74205 | 24142 ft | 379 kts | 310° |
| 2026-04-09 14:09 | 50.67053 | 9.71007 | 24145 ft | 379 kts | 310° |
| 2026-04-09 14:10 | 50.68737 | 9.67804 | 24145 ft | 379 kts | 310° |
| 2026-04-09 14:10 | 50.70414 | 9.64590 | 24146 ft | 380 kts | 309° |
| 2026-04-09 14:10 | 50.71887 | 9.61125 | 24152 ft | 381 kts | 301° |
| 2026-04-09 14:10 | 50.73031 | 9.57349 | 24144 ft | 383 kts | 293° |
| 2026-04-09 14:11 | 50.73811 | 9.53375 | 24146 ft | 385 kts | 285° |
| 2026-04-09 14:11 | 50.74365 | 9.49235 | 24145 ft | 386 kts | 284° |
| 2026-04-09 14:11 | 50.74921 | 9.45086 | 24146 ft | 386 kts | 285° |
| 2026-04-09 14:11 | 50.75482 | 9.40941 | 24147 ft | 386 kts | 285° |
| 2026-04-09 14:12 | 50.76046 | 9.36795 | 24128 ft | 386 kts | 284° |
| 2026-04-09 14:12 | 50.76610 | 9.32648 | 24127 ft | 387 kts | 284° |
| 2026-04-09 14:12 | 50.77176 | 9.28493 | 24132 ft | 387 kts | 284° |
| 2026-04-09 14:12 | 50.77742 | 9.24333 | 24136 ft | 387 kts | 284° |
| 2026-04-09 14:13 | 50.78302 | 9.20177 | 24142 ft | 387 kts | 284° |
| 2026-04-09 14:13 | 50.78856 | 9.16009 | 24140 ft | 388 kts | 284° |
| 2026-04-09 14:13 | 50.79408 | 9.11834 | 24141 ft | 388 kts | 284° |
| 2026-04-09 14:13 | 50.79959 | 9.07660 | 24143 ft | 388 kts | 284° |
| 2026-04-09 14:14 | 50.80514 | 9.03485 | 24145 ft | 388 kts | 284° |
| 2026-04-09 14:14 | 50.81071 | 8.99310 | 24146 ft | 388 kts | 284° |
| 2026-04-09 14:14 | 50.81625 | 8.95134 | 24147 ft | 388 kts | 284° |
| 2026-04-09 14:14 | 50.82211 | 8.90977 | 24148 ft | 387 kts | 288° |
| 2026-04-09 14:15 | 50.83091 | 8.86965 | 24145 ft | 385 kts | 295° |
| 2026-04-09 14:15 | 50.84279 | 8.83179 | 24144 ft | 384 kts | 300° |
| 2026-04-09 14:15 | 50.85534 | 8.79451 | 24143 ft | 384 kts | 300° |
| 2026-04-09 14:15 | 50.86785 | 8.75708 | 24144 ft | 384 kts | 299° |
| 2026-04-09 14:16 | 50.88029 | 8.71967 | 24144 ft | 384 kts | 299° |
| 2026-04-09 14:16 | 50.89274 | 8.68216 | 24144 ft | 384 kts | 299° |
| 2026-04-09 14:16 | 50.90515 | 8.64471 | 24145 ft | 384 kts | 299° |
| 2026-04-09 14:16 | 50.91758 | 8.60717 | 24145 ft | 384 kts | 299° |
| 2026-04-09 14:17 | 50.92997 | 8.56966 | 24139 ft | 384 kts | 299° |
| 2026-04-09 14:17 | 50.94238 | 8.53205 | 24139 ft | 384 kts | 299° |
| 2026-04-09 14:17 | 50.95475 | 8.49455 | 24123 ft | 384 kts | 299° |
| 2026-04-09 14:17 | 50.96713 | 8.45697 | 24130 ft | 384 kts | 299° |
| 2026-04-09 14:18 | 50.97951 | 8.41939 | 24133 ft | 384 kts | 299° |
| 2026-04-09 14:18 | 50.99186 | 8.38185 | 24137 ft | 384 kts | 299° |
| 2026-04-09 14:18 | 51.00595 | 8.34597 | 24139 ft | 383 kts | 307° |
| 2026-04-09 14:18 | 51.02312 | 8.31385 | 24133 ft | 382 kts | 315° |
| 2026-04-09 14:19 | 51.04303 | 8.28600 | 24142 ft | 382 kts | 323° |
| 2026-04-09 14:19 | 51.06527 | 8.26292 | 24135 ft | 382 kts | 330° |
| 2026-04-09 14:19 | 51.08852 | 8.24232 | 24131 ft | 383 kts | 330° |
| 2026-04-09 14:19 | 51.11177 | 8.22167 | 24128 ft | 383 kts | 330° |
| 2026-04-09 14:20 | 51.13507 | 8.20096 | 23953 ft | 385 kts | 330° |
| 2026-04-09 14:20 | 51.15835 | 8.18024 | 23441 ft | 380 kts | 329° |
| 2026-04-09 14:20 | 51.18131 | 8.15980 | 22893 ft | 376 kts | 330° |
| 2026-04-09 14:20 | 51.20403 | 8.13952 | 22331 ft | 373 kts | 329° |
| 2026-04-09 14:21 | 51.22655 | 8.11937 | 21796 ft | 370 kts | 329° |
| 2026-04-09 14:21 | 51.24891 | 8.09932 | 21246 ft | 367 kts | 329° |
| 2026-04-09 14:21 | 51.27112 | 8.07939 | 20719 ft | 365 kts | 329° |
| 2026-04-09 14:21 | 51.29316 | 8.05956 | 20214 ft | 363 kts | 329° |
| 2026-04-09 14:22 | 51.31507 | 8.03985 | 19720 ft | 360 kts | 329° |
| 2026-04-09 14:22 | 51.33683 | 8.02028 | 19236 ft | 357 kts | 329° |
| 2026-04-09 14:22 | 51.35839 | 8.00086 | 18760 ft | 355 kts | 329° |
| 2026-04-09 14:22 | 51.37985 | 7.98154 | 18273 ft | 353 kts | 329° |
| 2026-04-09 14:23 | 51.40112 | 7.96234 | 17730 ft | 350 kts | 329° |
| 2026-04-09 14:23 | 51.42225 | 7.94321 | 17221 ft | 347 kts | 329° |
| 2026-04-09 14:23 | 51.44323 | 7.92424 | 16714 ft | 345 kts | 329° |
| 2026-04-09 14:23 | 51.46404 | 7.90546 | 16227 ft | 342 kts | 329° |
| 2026-04-09 14:24 | 51.48504 | 7.88875 | 15766 ft | 341 kts | 336° |
| 2026-04-09 14:24 | 51.50778 | 7.87655 | 15283 ft | 340 kts | 341° |
| 2026-04-09 14:24 | 51.53009 | 7.86597 | 14834 ft | 338 kts | 341° |
| 2026-04-09 14:24 | 51.55282 | 7.85513 | 14392 ft | 335 kts | 341° |
| 2026-04-09 14:25 | 51.57478 | 7.84460 | 13950 ft | 333 kts | 341° |
| 2026-04-09 14:25 | 51.59690 | 7.83396 | 13458 ft | 331 kts | 341° |
| 2026-04-09 14:25 | 51.61886 | 7.82341 | 12957 ft | 328 kts | 341° |
| 2026-04-09 14:25 | 51.64071 | 7.81292 | 12446 ft | 326 kts | 341° |
| 2026-04-09 14:26 | 51.66239 | 7.80249 | 11948 ft | 324 kts | 341° |
| 2026-04-09 14:26 | 51.68395 | 7.79210 | 11441 ft | 322 kts | 341° |
| 2026-04-09 14:26 | 51.70539 | 7.78178 | 10940 ft | 321 kts | 341° |
| 2026-04-09 14:26 | 51.72670 | 7.77150 | 10445 ft | 319 kts | 341° |
| 2026-04-09 14:27 | 51.74796 | 7.76121 | 9918 ft | 318 kts | 341° |
| 2026-04-09 14:27 | 51.76910 | 7.75095 | 9368 ft | 317 kts | 341° |
| 2026-04-09 14:27 | 51.79013 | 7.74070 | 8839 ft | 315 kts | 341° |
| 2026-04-09 14:27 | 51.81108 | 7.73052 | 8333 ft | 313 kts | 341° |
| 2026-04-09 14:28 | 51.83190 | 7.72045 | 7869 ft | 310 kts | 341° |
| 2026-04-09 14:28 | 51.85118 | 7.70896 | 7753 ft | 282 kts | 330° |
| 2026-04-09 14:28 | 51.86651 | 7.69177 | 7544 ft | 259 kts | 316° |
| 2026-04-09 14:28 | 51.87897 | 7.67119 | 7149 ft | 254 kts | 313° |
| 2026-04-09 14:29 | 51.89082 | 7.65110 | 6805 ft | 251 kts | 312° |
| 2026-04-09 14:29 | 51.90284 | 7.63070 | 6433 ft | 250 kts | 313° |
| 2026-04-09 14:29 | 51.91484 | 7.61032 | 5995 ft | 250 kts | 312° |
| 2026-04-09 14:29 | 51.92681 | 7.58994 | 5608 ft | 249 kts | 312° |
| 2026-04-09 14:30 | 51.93865 | 7.56978 | 5326 ft | 243 kts | 312° |
| 2026-04-09 14:30 | 51.95007 | 7.55037 | 5177 ft | 233 kts | 312° |
| 2026-04-09 14:30 | 51.96101 | 7.53177 | 5015 ft | 223 kts | 312° |
| 2026-04-09 14:30 | 51.97172 | 7.51359 | 4718 ft | 222 kts | 312° |
| 2026-04-09 14:31 | 51.98245 | 7.49540 | 4345 ft | 225 kts | 311° |
| 2026-04-09 14:31 | 51.99331 | 7.47700 | 4009 ft | 225 kts | 311° |
| 2026-04-09 14:31 | 52.00378 | 7.45925 | 3873 ft | 216 kts | 312° |
| 2026-04-09 14:31 | 52.01403 | 7.44187 | 3704 ft | 210 kts | 312° |
| 2026-04-09 14:32 | 52.02411 | 7.42473 | 3464 ft | 210 kts | 311° |
| 2026-04-09 14:32 | 52.03418 | 7.40759 | 3207 ft | 210 kts | 312° |
| 2026-04-09 14:32 | 52.04452 | 7.39081 | 3013 ft | 211 kts | 322° |
| 2026-04-09 14:32 | 52.05811 | 7.38397 | 2987 ft | 206 kts | 6° |
| 2026-04-09 14:33 | 52.07040 | 7.39293 | 2984 ft | 189 kts | 48° |
| 2026-04-09 14:33 | 52.07648 | 7.41094 | 3037 ft | 181 kts | 72° |
| 2026-04-09 14:33 | 52.08049 | 7.42998 | 2998 ft | 176 kts | 72° |
| 2026-04-09 14:33 | 52.08447 | 7.44883 | 2926 ft | 177 kts | 72° |
| 2026-04-09 14:34 | 52.08851 | 7.46779 | 2736 ft | 177 kts | 73° |
| 2026-04-09 14:34 | 52.09248 | 7.48640 | 2520 ft | 172 kts | 73° |
| 2026-04-09 14:34 | 52.09637 | 7.50462 | 2320 ft | 169 kts | 73° |
| 2026-04-09 14:34 | 52.10017 | 7.52245 | 2101 ft | 164 kts | 76° |
| 2026-04-09 14:35 | 52.10387 | 7.53983 | 1902 ft | 162 kts | 74° |
| 2026-04-09 14:35 | 52.10751 | 7.55692 | 1667 ft | 160 kts | 75° |
| 2026-04-09 14:35 | 52.11114 | 7.57396 | 1445 ft | 158 kts | 72° |
| 2026-04-09 14:35 | 52.11473 | 7.59084 | 1220 ft | 153 kts | 73° |
| 2026-04-09 14:36 | 52.11805 | 7.60644 | 1022 ft | 140 kts | 72° |
| 2026-04-09 14:36 | 52.12111 | 7.62087 | 838 ft | 131 kts | 75° |
| 2026-04-09 14:36 | 52.12421 | 7.63478 | 609 ft | 130 kts | 73° |
| 2026-04-09 14:36 | 52.12701 | 7.64871 | 479 ft | 130 kts | 71° |
| 2026-04-09 14:37 | 52.13000 | 7.66276 | 307 ft | 132 kts | 73° |
| 2026-04-09 14:37 | 52.13282 | 7.67639 | 167 ft | 116 kts | 73° |
| 2026-04-09 14:37 | 52.13489 | 7.68622 | 167 ft | 68 kts | 70° |
| 2026-04-09 14:37 | 52.13589 | 7.69088 | 169 ft | 19 kts | 71° |
| 2026-04-09 14:38 | 52.13630 | 7.69278 | 169 ft | 22 kts | 70° |
| 2026-04-09 14:38 | 52.13679 | 7.69514 | 169 ft | 24 kts | 72° |
| 2026-04-09 14:38 | 52.13737 | 7.69808 | 168 ft | 29 kts | 72° |
| 2026-04-09 14:38 | 52.13727 | 7.70022 | 167 ft | 18 kts | 164° |
| 2026-04-09 14:39 | 52.13608 | 7.69972 | 168 ft | 20 kts | 227° |
| 2026-04-09 14:39 | 52.13559 | 7.69752 | 168 ft | 22 kts | 250° |
| 2026-04-09 14:39 | 52.13514 | 7.69544 | 168 ft | 17 kts | 251° |
| 2026-04-09 14:39 | 52.13475 | 7.69357 | 168 ft | 17 kts | 251° |
| 2026-04-09 14:40 | 52.13471 | 7.69339 | 168 ft | 0 kts | 250° |
| 2026-04-09 14:45 | 52.13471 | 7.69338 | 168 ft | 1 kts | 250° |
| 2026-04-09 14:45 | 52.13428 | 7.69227 | 168 ft | 15 kts | 200° |
| 2026-04-09 14:45 | 52.13320 | 7.69284 | 168 ft | 18 kts | 160° |
| 2026-04-09 14:45 | 52.13240 | 7.69368 | 168 ft | 6 kts | 101° |
| 2026-04-09 14:46 | 52.13219 | 7.69399 | 168 ft | 5 kts | 195° |
| 2026-04-09 14:46 | 52.13186 | 7.69383 | 168 ft | 5 kts | 197° |
| 2026-04-09 14:46 | 52.13178 | 7.69379 | 168 ft | 0 kts | 197° |